TimeCDT,TemperatureF,Dew PointF,Humidity,Sea Level PressureIn,VisibilityMPH,Wind Direction,Wind SpeedMPH,Gust SpeedMPH,PrecipitationIn,Events,Conditions,WindDirDegrees,DateUTC
12:15 AM,55.4,42.8,63,30.00,10.0,ESE,17.3,25.3,N/A,,Overcast,120,2013-10-15 05:15:00
12:35 AM,55.4,42.8,63,29.99,10.0,SE,17.3,-,N/A,,Overcast,130,2013-10-15 05:35:00
12:55 AM,53.6,42.8,67,29.98,10.0,ESE,18.4,25.3,N/A,,Overcast,120,2013-10-15 05:55:00
1:15 AM,55.4,42.8,63,29.97,10.0,ESE,17.3,-,N/A,,Overcast,120,2013-10-15 06:15:00
1:35 AM,55.4,42.8,63,29.95,10.0,ESE,16.1,-,N/A,,Overcast,120,2013-10-15 06:35:00
1:55 AM,55.4,42.8,63,29.95,10.0,SE,18.4,27.6,N/A,,Overcast,130,2013-10-15 06:55:00
2:15 AM,55.4,42.8,63,29.94,10.0,ESE,15.0,21.9,N/A,,Overcast,120,2013-10-15 07:15:00
2:35 AM,55.4,42.8,63,29.93,10.0,SE,17.3,24.2,N/A,,Overcast,130,2013-10-15 07:35:00
2:55 AM,53.6,44.6,72,29.92,8.0,SE,16.1,23.0,N/A,Rain,Light Rain,130,2013-10-15 07:55:00
3:15 AM,55.4,44.6,67,29.91,10.0,SE,13.8,23.0,N/A,,Overcast,130,2013-10-15 08:15:00
3:35 AM,53.6,44.6,72,29.90,10.0,SE,13.8,-,N/A,,Overcast,130,2013-10-15 08:35:00
3:55 AM,53.6,44.6,72,29.91,10.0,SSE,11.5,19.6,N/A,,Overcast,150,2013-10-15 08:55:00
4:15 AM,53.6,46.4,77,29.91,5.0,SE,8.1,-,N/A,Rain,Light Rain,140,2013-10-15 09:15:00
4:35 AM,53.6,46.4,77,29.89,10.0,SE,10.4,-,N/A,,Overcast,130,2013-10-15 09:35:00
4:55 AM,51.8,48.2,88,29.87,4.0,SE,12.7,-,0.01,,Overcast,130,2013-10-15 09:55:00
5:15 AM,51.8,48.2,88,29.86,6.0,SE,12.7,19.6,N/A,,Overcast,130,2013-10-15 10:15:00
5:35 AM,51.8,48.2,88,29.86,10.0,SE,10.4,18.4,N/A,,Overcast,140,2013-10-15 10:35:00
5:55 AM,51.8,50.0,94,29.84,10.0,ESE,13.8,-,0.01,,Overcast,120,2013-10-15 10:55:00
6:15 AM,51.8,50.0,94,29.85,7.0,SE,11.5,17.3,N/A,Rain,Light Rain,130,2013-10-15 11:15:00
6:35 AM,53.6,50.0,88,29.85,9.0,SE,9.2,15.0,N/A,Rain,Light Rain,130,2013-10-15 11:35:00
6:55 AM,53.6,51.8,94,29.83,8.0,SE,9.2,-,0.01,Rain,Light Rain,130,2013-10-15 11:55:00
7:15 AM,53.6,51.8,94,29.84,7.0,SSE,9.2,-,N/A,Rain,Light Rain,150,2013-10-15 12:15:00
7:35 AM,53.6,51.8,94,29.84,9.0,SSE,11.5,-,N/A,,Overcast,150,2013-10-15 12:35:00
7:55 AM,55.4,53.6,94,29.84,7.0,SSE,11.5,-,0.01,,Overcast,150,2013-10-15 12:55:00
8:15 AM,55.4,53.6,94,29.83,5.0,SE,8.1,-,N/A,,Overcast,140,2013-10-15 13:15:00
8:35 AM,55.4,53.6,94,29.83,3.0,SE,8.1,-,N/A,,Overcast,140,2013-10-15 13:35:00
8:55 AM,55.4,55.4,100,29.83,3.0,SE,6.9,-,N/A,,Overcast,140,2013-10-15 13:55:00
9:15 AM,55.4,55.4,100,29.82,1.8,SSE,8.1,-,N/A,,Overcast,160,2013-10-15 14:15:00
9:35 AM,59.0,57.2,94,29.82,2.0,South,9.2,-,N/A,,Overcast,180,2013-10-15 14:35:00
9:55 AM,59.0,59.0,100,29.81,3.0,South,10.4,-,N/A,,Overcast,170,2013-10-15 14:55:00
10:15 AM,60.8,59.0,94,29.81,5.0,South,10.4,-,N/A,,Overcast,180,2013-10-15 15:15:00
10:35 AM,60.8,59.0,94,29.80,5.0,South,10.4,-,N/A,,Overcast,190,2013-10-15 15:35:00
10:55 AM,57.2,53.6,88,29.81,9.0,West,16.1,25.3,N/A,,Overcast,260,2013-10-15 15:55:00
11:15 AM,57.2,53.6,88,29.81,10.0,WSW,15.0,-,N/A,,Overcast,250,2013-10-15 16:15:00
11:35 AM,57.2,51.8,82,29.81,10.0,West,16.1,23.0,N/A,,Overcast,270,2013-10-15 16:35:00
11:55 AM,57.2,51.8,82,29.81,10.0,WSW,16.1,23.0,N/A,,Overcast,250,2013-10-15 16:55:00
12:15 PM,57.2,51.8,82,29.81,10.0,WSW,16.1,-,N/A,,Overcast,240,2013-10-15 17:15:00
12:35 PM,57.2,51.8,82,29.80,10.0,SW,16.1,-,N/A,,Overcast,230,2013-10-15 17:35:00
12:55 PM,59.0,50.0,72,29.80,10.0,WSW,15.0,20.7,N/A,,Overcast,240,2013-10-15 17:55:00
1:15 PM,59.0,50.0,72,29.80,10.0,WSW,18.4,-,N/A,,Mostly Cloudy,240,2013-10-15 18:15:00
1:35 PM,59.0,46.4,63,29.80,10.0,WSW,17.3,25.3,N/A,,Mostly Cloudy,250,2013-10-15 18:35:00
1:55 PM,59.0,46.4,63,29.80,10.0,WSW,16.1,23.0,N/A,,Mostly Cloudy,240,2013-10-15 18:55:00
2:15 PM,57.2,46.4,67,29.80,10.0,WSW,17.3,24.2,N/A,,Mostly Cloudy,250,2013-10-15 19:15:00
2:35 PM,57.2,46.4,67,29.80,10.0,WSW,18.4,-,N/A,,Mostly Cloudy,250,2013-10-15 19:35:00
2:55 PM,57.2,44.6,63,29.80,10.0,West,19.6,25.3,N/A,,Scattered Clouds,260,2013-10-15 19:55:00
3:15 PM,57.2,42.8,59,29.80,10.0,WSW,18.4,27.6,N/A,,Mostly Cloudy,240,2013-10-15 20:15:00
3:35 PM,57.2,42.8,59,29.80,10.0,WSW,19.6,-,N/A,,Overcast,250,2013-10-15 20:35:00
3:55 PM,55.4,42.8,63,29.80,10.0,WSW,15.0,20.7,N/A,,Scattered Clouds,250,2013-10-15 20:55:00
4:15 PM,55.4,42.8,63,29.81,10.0,WSW,16.1,25.3,N/A,,Mostly Cloudy,240,2013-10-15 21:15:00
4:35 PM,57.2,42.8,59,29.81,10.0,West,18.4,26.5,N/A,,Mostly Cloudy,260,2013-10-15 21:35:00
4:55 PM,55.4,42.8,63,29.82,10.0,WSW,18.4,24.2,N/A,,Mostly Cloudy,240,2013-10-15 21:55:00
5:15 PM,55.4,42.8,63,29.82,10.0,West,12.7,21.9,N/A,,Overcast,260,2013-10-15 22:15:00
5:35 PM,53.6,42.8,67,29.83,10.0,West,17.3,-,N/A,,Overcast,260,2013-10-15 22:35:00
5:55 PM,53.6,42.8,67,29.83,10.0,WSW,13.8,-,N/A,,Overcast,240,2013-10-15 22:55:00
6:15 PM,51.8,42.8,71,29.83,10.0,WSW,16.1,23.0,N/A,,Overcast,240,2013-10-15 23:15:00
6:35 PM,51.8,42.8,71,29.83,10.0,WSW,11.5,19.6,N/A,,Overcast,250,2013-10-15 23:35:00
6:55 PM,51.8,42.8,71,29.84,10.0,WSW,13.8,-,N/A,,Overcast,240,2013-10-15 23:55:00
7:15 PM,51.8,41.0,67,29.84,10.0,WSW,15.0,21.9,N/A,,Overcast,240,2013-10-16 00:15:00
7:55 PM,51.8,41.0,67,29.85,10.0,WSW,16.1,21.9,N/A,,Overcast,250,2013-10-16 00:55:00
8:15 PM,51.8,41.0,67,29.85,10.0,WSW,16.1,23.0,N/A,,Overcast,250,2013-10-16 01:15:00
8:35 PM,51.8,41.0,67,29.85,10.0,WSW,16.1,-,N/A,,Overcast,250,2013-10-16 01:35:00
8:55 PM,51.8,42.8,71,29.86,10.0,WSW,11.5,23.0,N/A,,Overcast,240,2013-10-16 01:55:00
9:15 PM,50.0,42.8,76,29.85,10.0,WSW,17.3,23.0,N/A,,Overcast,240,2013-10-16 02:15:00
9:35 PM,50.0,42.8,76,29.85,10.0,WSW,13.8,27.6,N/A,,Overcast,240,2013-10-16 02:35:00
9:55 PM,50.0,42.8,76,29.85,10.0,WSW,16.1,29.9,N/A,,Overcast,240,2013-10-16 02:55:00
10:15 PM,50.0,42.8,76,29.85,10.0,WSW,15.0,25.3,N/A,,Overcast,250,2013-10-16 03:15:00
10:35 PM,50.0,44.6,82,29.85,10.0,WSW,13.8,24.2,N/A,,Overcast,240,2013-10-16 03:35:00
10:55 PM,50.0,44.6,82,29.85,10.0,WSW,16.1,-,N/A,,Overcast,240,2013-10-16 03:55:00
11:15 PM,50.0,44.6,82,29.84,10.0,WSW,17.3,-,N/A,,Overcast,240,2013-10-16 04:15:00
11:35 PM,50.0,44.6,82,29.84,10.0,WSW,13.8,21.9,N/A,,Overcast,250,2013-10-16 04:35:00
11:55 PM,50.0,44.6,82,29.84,10.0,WSW,16.1,-,N/A,,Overcast,250,2013-10-16 04:55:00